sensor_id;sensor_type;location;lat;lon;timestamp;P1;durP1;ratioP1;P2;durP2;ratioP2
42018;SDS011;27703;51.980;5.848;2022-07-12T00:01:38;0.43;;;0.10;;
42018;SDS011;27703;51.980;5.848;2022-07-12T00:04:03;1.58;;;0.10;;
42018;SDS011;27703;51.980;5.848;2022-07-12T00:06:29;0.30;;;0.10;;
42018;SDS011;27703;51.980;5.848;2022-07-12T00:08:55;0.22;;;0.10;;
42018;SDS011;27703;51.980;5.848;2022-07-12T00:11:20;0.68;;;0.10;;
42018;SDS011;27703;51.980;5.848;2022-07-12T00:13:46;2.45;;;0.10;;
42018;SDS011;27703;51.980;5.848;2022-07-12T00:16:11;0.63;;;0.10;;
42018;SDS011;27703;51.980;5.848;2022-07-12T00:18:37;0.47;;;0.10;;
42018;SDS011;27703;51.980;5.848;2022-07-12T00:21:02;0.28;;;0.10;;
42018;SDS011;27703;51.980;5.848;2022-07-12T00:23:28;0.45;;;0.10;;
42018;SDS011;27703;51.980;5.848;2022-07-12T00:25:54;0.20;;;0.10;;
42018;SDS011;27703;51.980;5.848;2022-07-12T00:28:19;0.68;;;0.10;;
42018;SDS011;27703;51.980;5.848;2022-07-12T00:30:45;1.42;;;0.10;;
42018;SDS011;27703;51.980;5.848;2022-07-12T00:33:10;0.82;;;0.10;;
42018;SDS011;27703;51.980;5.848;2022-07-12T00:35:36;0.20;;;0.10;;
42018;SDS011;27703;51.980;5.848;2022-07-12T00:38:01;0.22;;;0.10;;
42018;SDS011;27703;51.980;5.848;2022-07-12T00:40:27;0.80;;;0.10;;
42018;SDS011;27703;51.980;5.848;2022-07-12T00:42:53;0.20;;;0.10;;
42018;SDS011;27703;51.980;5.848;2022-07-12T00:45:18;0.15;;;0.10;;
42018;SDS011;27703;51.980;5.848;2022-07-12T00:47:44;0.50;;;0.10;;
42018;SDS011;27703;51.980;5.848;2022-07-12T00:50:15;0.25;;;0.10;;
42018;SDS011;27703;51.980;5.848;2022-07-12T00:52:43;0.20;;;0.10;;
42018;SDS011;27703;51.980;5.848;2022-07-12T00:55:09;0.20;;;0.10;;
42018;SDS011;27703;51.980;5.848;2022-07-12T00:57:36;0.60;;;0.10;;
42018;SDS011;27703;51.980;5.848;2022-07-12T01:00:08;0.10;;;0.10;;
42018;SDS011;27703;51.980;5.848;2022-07-12T01:02:35;0.28;;;0.10;;
42018;SDS011;27703;51.980;5.848;2022-07-12T01:05:03;0.40;;;0.10;;
42018;SDS011;27703;51.980;5.848;2022-07-12T01:07:30;0.60;;;0.10;;
42018;SDS011;27703;51.980;5.848;2022-07-12T01:09:55;0.20;;;0.10;;
42018;SDS011;27703;51.980;5.848;2022-07-12T01:12:21;0.40;;;0.17;;
42018;SDS011;27703;51.980;5.848;2022-07-12T01:14:49;0.20;;;0.10;;
42018;SDS011;27703;51.980;5.848;2022-07-12T01:17:19;0.47;;;0.20;;
42018;SDS011;27703;51.980;5.848;2022-07-12T01:19:46;0.30;;;0.10;;
42018;SDS011;27703;51.980;5.848;2022-07-12T01:22:16;0.50;;;0.10;;
42018;SDS011;27703;51.980;5.848;2022-07-12T01:24:43;0.32;;;0.10;;
42018;SDS011;27703;51.980;5.848;2022-07-12T01:27:12;0.20;;;0.10;;
42018;SDS011;27703;51.980;5.848;2022-07-12T01:29:38;0.45;;;0.20;;
42018;SDS011;27703;51.980;5.848;2022-07-12T01:32:04;0.30;;;0.10;;
42018;SDS011;27703;51.980;5.848;2022-07-12T01:34:56;0.63;;;0.20;;
42018;SDS011;27703;51.980;5.848;2022-07-12T01:37:22;0.32;;;0.20;;
42018;SDS011;27703;51.980;5.848;2022-07-12T01:39:50;0.30;;;0.10;;
42018;SDS011;27703;51.980;5.848;2022-07-12T01:42:17;0.50;;;0.15;;
42018;SDS011;27703;51.980;5.848;2022-07-12T01:44:43;0.43;;;0.10;;
42018;SDS011;27703;51.980;5.848;2022-07-12T01:47:09;0.43;;;0.10;;
42018;SDS011;27703;51.980;5.848;2022-07-12T01:49:35;0.30;;;0.10;;
42018;SDS011;27703;51.980;5.848;2022-07-12T01:52:00;0.57;;;0.20;;
42018;SDS011;27703;51.980;5.848;2022-07-12T01:54:26;0.30;;;0.20;;
42018;SDS011;27703;51.980;5.848;2022-07-12T01:56:52;0.63;;;0.10;;
42018;SDS011;27703;51.980;5.848;2022-07-12T01:59:18;0.52;;;0.20;;
42018;SDS011;27703;51.980;5.848;2022-07-12T02:01:44;0.60;;;0.10;;
42018;SDS011;27703;51.980;5.848;2022-07-12T02:04:11;0.30;;;0.20;;
42018;SDS011;27703;51.980;5.848;2022-07-12T02:06:36;0.93;;;0.28;;
42018;SDS011;27703;51.980;5.848;2022-07-12T02:09:03;0.30;;;0.20;;
42018;SDS011;27703;51.980;5.848;2022-07-12T02:11:29;0.50;;;0.20;;
42018;SDS011;27703;51.980;5.848;2022-07-12T02:13:55;1.67;;;0.20;;
42018;SDS011;27703;51.980;5.848;2022-07-12T02:16:21;1.02;;;0.50;;
42018;SDS011;27703;51.980;5.848;2022-07-12T02:18:46;1.98;;;0.20;;
42018;SDS011;27703;51.980;5.848;2022-07-12T02:21:12;0.65;;;0.20;;
42018;SDS011;27703;51.980;5.848;2022-07-12T02:23:38;0.45;;;0.20;;
42018;SDS011;27703;51.980;5.848;2022-07-12T02:26:03;0.40;;;0.20;;
42018;SDS011;27703;51.980;5.848;2022-07-12T02:28:29;0.38;;;0.20;;
42018;SDS011;27703;51.980;5.848;2022-07-12T02:30:54;0.50;;;0.28;;
42018;SDS011;27703;51.980;5.848;2022-07-12T02:33:20;0.55;;;0.20;;
42018;SDS011;27703;51.980;5.848;2022-07-12T02:35:45;0.30;;;0.20;;
42018;SDS011;27703;51.980;5.848;2022-07-12T02:38:11;0.82;;;0.20;;
42018;SDS011;27703;51.980;5.848;2022-07-12T02:40:37;0.30;;;0.20;;
42018;SDS011;27703;51.980;5.848;2022-07-12T02:43:27;0.30;;;0.20;;
42018;SDS011;27703;51.980;5.848;2022-07-12T02:45:55;0.68;;;0.20;;
42018;SDS011;27703;51.980;5.848;2022-07-12T02:48:28;0.38;;;0.20;;
42018;SDS011;27703;51.980;5.848;2022-07-12T02:50:53;0.75;;;0.20;;
42018;SDS011;27703;51.980;5.848;2022-07-12T02:53:19;0.30;;;0.20;;
42018;SDS011;27703;51.980;5.848;2022-07-12T02:55:44;0.30;;;0.20;;
42018;SDS011;27703;51.980;5.848;2022-07-12T02:58:10;0.70;;;0.30;;
42018;SDS011;27703;51.980;5.848;2022-07-12T03:00:37;1.65;;;0.10;;
42018;SDS011;27703;51.980;5.848;2022-07-12T03:03:02;0.60;;;0.30;;
42018;SDS011;27703;51.980;5.848;2022-07-12T03:05:28;1.00;;;0.20;;
42018;SDS011;27703;51.980;5.848;2022-07-12T03:07:54;0.80;;;0.28;;
42018;SDS011;27703;51.980;5.848;2022-07-12T03:10:20;0.52;;;0.30;;
42018;SDS011;27703;51.980;5.848;2022-07-12T03:12:45;0.40;;;0.30;;
42018;SDS011;27703;51.980;5.848;2022-07-12T03:15:11;0.60;;;0.30;;
42018;SDS011;27703;51.980;5.848;2022-07-12T03:17:37;1.02;;;0.35;;
42018;SDS011;27703;51.980;5.848;2022-07-12T03:20:03;1.48;;;0.40;;
42018;SDS011;27703;51.980;5.848;2022-07-12T03:22:32;0.90;;;0.50;;
42018;SDS011;27703;51.980;5.848;2022-07-12T03:24:57;0.60;;;0.30;;
42018;SDS011;27703;51.980;5.848;2022-07-12T03:27:23;0.95;;;0.40;;
42018;SDS011;27703;51.980;5.848;2022-07-12T03:29:50;1.40;;;0.40;;
42018;SDS011;27703;51.980;5.848;2022-07-12T03:32:15;1.33;;;0.60;;
42018;SDS011;27703;51.980;5.848;2022-07-12T03:34:41;0.70;;;0.40;;
42018;SDS011;27703;51.980;5.848;2022-07-12T03:37:07;0.50;;;0.30;;
42018;SDS011;27703;51.980;5.848;2022-07-12T03:39:32;1.27;;;0.40;;
42018;SDS011;27703;51.980;5.848;2022-07-12T03:41:57;1.20;;;0.50;;
42018;SDS011;27703;51.980;5.848;2022-07-12T03:44:23;1.83;;;0.47;;
42018;SDS011;27703;51.980;5.848;2022-07-12T03:46:49;0.82;;;0.43;;
42018;SDS011;27703;51.980;5.848;2022-07-12T03:49:14;0.70;;;0.40;;
42018;SDS011;27703;51.980;5.848;2022-07-12T03:51:40;0.77;;;0.40;;
42018;SDS011;27703;51.980;5.848;2022-07-12T03:54:06;1.05;;;0.63;;
42018;SDS011;27703;51.980;5.848;2022-07-12T03:56:34;0.70;;;0.50;;
42018;SDS011;27703;51.980;5.848;2022-07-12T03:59:19;1.70;;;0.50;;
42018;SDS011;27703;51.980;5.848;2022-07-12T04:01:45;0.70;;;0.40;;
42018;SDS011;27703;51.980;5.848;2022-07-12T04:04:11;1.00;;;0.40;;
42018;SDS011;27703;51.980;5.848;2022-07-12T04:06:36;0.98;;;0.50;;
42018;SDS011;27703;51.980;5.848;2022-07-12T04:09:03;2.15;;;0.50;;
42018;SDS011;27703;51.980;5.848;2022-07-12T04:11:29;0.90;;;0.40;;
42018;SDS011;27703;51.980;5.848;2022-07-12T04:13:55;0.65;;;0.38;;
42018;SDS011;27703;51.980;5.848;2022-07-12T04:16:21;0.80;;;0.40;;
42018;SDS011;27703;51.980;5.848;2022-07-12T04:18:46;0.70;;;0.43;;
42018;SDS011;27703;51.980;5.848;2022-07-12T04:21:12;0.98;;;0.45;;
42018;SDS011;27703;51.980;5.848;2022-07-12T04:23:37;1.48;;;0.57;;
42018;SDS011;27703;51.980;5.848;2022-07-12T04:26:03;0.82;;;0.40;;
42018;SDS011;27703;51.980;5.848;2022-07-12T04:28:29;1.00;;;0.50;;
42018;SDS011;27703;51.980;5.848;2022-07-12T04:30:54;1.55;;;0.40;;
42018;SDS011;27703;51.980;5.848;2022-07-12T04:33:20;0.98;;;0.50;;
42018;SDS011;27703;51.980;5.848;2022-07-12T04:35:45;1.05;;;0.50;;
42018;SDS011;27703;51.980;5.848;2022-07-12T04:38:11;1.30;;;0.50;;
42018;SDS011;27703;51.980;5.848;2022-07-12T04:40:36;1.40;;;0.70;;
42018;SDS011;27703;51.980;5.848;2022-07-12T04:43:02;1.40;;;0.50;;
42018;SDS011;27703;51.980;5.848;2022-07-12T04:45:28;1.20;;;0.50;;
42018;SDS011;27703;51.980;5.848;2022-07-12T04:47:53;1.40;;;0.60;;
42018;SDS011;27703;51.980;5.848;2022-07-12T04:50:19;1.38;;;0.60;;
42018;SDS011;27703;51.980;5.848;2022-07-12T04:52:45;1.58;;;0.52;;
42018;SDS011;27703;51.980;5.848;2022-07-12T04:55:10;2.40;;;0.50;;
42018;SDS011;27703;51.980;5.848;2022-07-12T04:57:35;0.75;;;0.47;;
42018;SDS011;27703;51.980;5.848;2022-07-12T05:00:03;1.13;;;0.70;;
42018;SDS011;27703;51.980;5.848;2022-07-12T05:02:29;1.42;;;0.73;;
42018;SDS011;27703;51.980;5.848;2022-07-12T05:04:55;1.55;;;0.70;;
42018;SDS011;27703;51.980;5.848;2022-07-12T05:07:20;2.45;;;1.13;;
42018;SDS011;27703;51.980;5.848;2022-07-12T05:09:46;1.55;;;0.85;;
42018;SDS011;27703;51.980;5.848;2022-07-12T05:12:11;1.52;;;1.02;;
42018;SDS011;27703;51.980;5.848;2022-07-12T05:14:37;1.10;;;0.80;;
42018;SDS011;27703;51.980;5.848;2022-07-12T05:17:03;1.15;;;0.75;;
42018;SDS011;27703;51.980;5.848;2022-07-12T05:19:28;1.10;;;0.70;;
42018;SDS011;27703;51.980;5.848;2022-07-12T05:21:54;1.50;;;0.90;;
42018;SDS011;27703;51.980;5.848;2022-07-12T05:24:19;1.65;;;0.90;;
42018;SDS011;27703;51.980;5.848;2022-07-12T05:26:45;1.75;;;0.70;;
42018;SDS011;27703;51.980;5.848;2022-07-12T05:29:10;1.10;;;0.70;;
42018;SDS011;27703;51.980;5.848;2022-07-12T05:31:36;1.33;;;0.88;;
42018;SDS011;27703;51.980;5.848;2022-07-12T05:34:01;1.58;;;1.17;;
42018;SDS011;27703;51.980;5.848;2022-07-12T05:36:27;1.75;;;1.65;;
42018;SDS011;27703;51.980;5.848;2022-07-12T05:38:53;2.08;;;1.88;;
42018;SDS011;27703;51.980;5.848;2022-07-12T05:41:18;2.50;;;1.33;;
42018;SDS011;27703;51.980;5.848;2022-07-12T05:43:44;1.70;;;1.13;;
42018;SDS011;27703;51.980;5.848;2022-07-12T05:46:10;1.95;;;1.42;;
42018;SDS011;27703;51.980;5.848;2022-07-12T05:48:36;1.70;;;1.60;;
42018;SDS011;27703;51.980;5.848;2022-07-12T05:51:02;2.10;;;1.13;;
42018;SDS011;27703;51.980;5.848;2022-07-12T05:53:47;1.77;;;1.48;;
42018;SDS011;27703;51.980;5.848;2022-07-12T05:56:13;1.58;;;1.10;;
42018;SDS011;27703;51.980;5.848;2022-07-12T05:58:39;1.40;;;1.13;;
42018;SDS011;27703;51.980;5.848;2022-07-12T06:01:05;2.35;;;1.35;;
42018;SDS011;27703;51.980;5.848;2022-07-12T06:03:30;1.40;;;1.00;;
42018;SDS011;27703;51.980;5.848;2022-07-12T06:05:56;1.73;;;1.27;;
42018;SDS011;27703;51.980;5.848;2022-07-12T06:08:22;1.35;;;1.20;;
42018;SDS011;27703;51.980;5.848;2022-07-12T06:10:47;1.27;;;1.02;;
42018;SDS011;27703;51.980;5.848;2022-07-12T06:13:13;1.98;;;1.02;;
42018;SDS011;27703;51.980;5.848;2022-07-12T06:15:38;1.50;;;0.98;;
42018;SDS011;27703;51.980;5.848;2022-07-12T06:18:04;2.42;;;1.05;;
42018;SDS011;27703;51.980;5.848;2022-07-12T06:20:29;2.35;;;2.15;;
42018;SDS011;27703;51.980;5.848;2022-07-12T06:22:55;1.60;;;1.40;;
42018;SDS011;27703;51.980;5.848;2022-07-12T06:25:21;1.73;;;1.35;;
42018;SDS011;27703;51.980;5.848;2022-07-12T06:27:48;1.40;;;1.10;;
42018;SDS011;27703;51.980;5.848;2022-07-12T06:30:17;2.13;;;1.77;;
42018;SDS011;27703;51.980;5.848;2022-07-12T06:32:44;2.15;;;1.95;;
42018;SDS011;27703;51.980;5.848;2022-07-12T06:35:11;1.42;;;1.23;;
42018;SDS011;27703;51.980;5.848;2022-07-12T06:37:37;1.30;;;1.00;;
42018;SDS011;27703;51.980;5.848;2022-07-12T06:40:03;1.30;;;0.98;;
42018;SDS011;27703;51.980;5.848;2022-07-12T06:42:29;1.65;;;0.95;;
42018;SDS011;27703;51.980;5.848;2022-07-12T06:44:55;1.25;;;0.90;;
42018;SDS011;27703;51.980;5.848;2022-07-12T06:47:20;1.40;;;1.05;;
42018;SDS011;27703;51.980;5.848;2022-07-12T06:49:46;1.27;;;0.80;;
42018;SDS011;27703;51.980;5.848;2022-07-12T06:52:12;1.60;;;1.15;;
42018;SDS011;27703;51.980;5.848;2022-07-12T06:54:37;1.40;;;1.27;;
42018;SDS011;27703;51.980;5.848;2022-07-12T06:57:03;3.72;;;1.38;;
42018;SDS011;27703;51.980;5.848;2022-07-12T06:59:29;1.75;;;1.00;;
42018;SDS011;27703;51.980;5.848;2022-07-12T07:01:54;2.22;;;1.15;;
42018;SDS011;27703;51.980;5.848;2022-07-12T07:04:22;1.50;;;1.00;;
42018;SDS011;27703;51.980;5.848;2022-07-12T07:06:48;1.85;;;1.20;;
42018;SDS011;27703;51.980;5.848;2022-07-12T07:09:14;1.20;;;0.60;;
42018;SDS011;27703;51.980;5.848;2022-07-12T07:11:40;2.20;;;0.80;;
42018;SDS011;27703;51.980;5.848;2022-07-12T07:14:05;1.30;;;0.70;;
42018;SDS011;27703;51.980;5.848;2022-07-12T07:16:31;1.80;;;0.80;;
42018;SDS011;27703;51.980;5.848;2022-07-12T07:18:57;1.40;;;0.82;;
42018;SDS011;27703;51.980;5.848;2022-07-12T07:21:22;2.22;;;0.73;;
42018;SDS011;27703;51.980;5.848;2022-07-12T07:23:49;0.93;;;0.50;;
42018;SDS011;27703;51.980;5.848;2022-07-12T07:26:15;1.00;;;0.50;;
42018;SDS011;27703;51.980;5.848;2022-07-12T07:28:41;1.02;;;0.50;;
42018;SDS011;27703;51.980;5.848;2022-07-12T07:31:25;1.08;;;0.60;;
42018;SDS011;27703;51.980;5.848;2022-07-12T07:33:50;0.45;;;0.32;;
42018;SDS011;27703;51.980;5.848;2022-07-12T07:36:16;1.20;;;0.65;;
42018;SDS011;27703;51.980;5.848;2022-07-12T07:38:41;2.10;;;0.70;;
42018;SDS011;27703;51.980;5.848;2022-07-12T07:41:07;1.05;;;0.50;;
42018;SDS011;27703;51.980;5.848;2022-07-12T07:43:32;1.40;;;0.60;;
42018;SDS011;27703;51.980;5.848;2022-07-12T07:45:58;2.85;;;0.80;;
42018;SDS011;27703;51.980;5.848;2022-07-12T07:48:26;1.00;;;0.60;;
42018;SDS011;27703;51.980;5.848;2022-07-12T07:50:52;1.30;;;0.93;;
42018;SDS011;27703;51.980;5.848;2022-07-12T07:53:17;1.25;;;0.70;;
42018;SDS011;27703;51.980;5.848;2022-07-12T07:55:43;1.65;;;0.65;;
42018;SDS011;27703;51.980;5.848;2022-07-12T07:58:09;0.93;;;0.63;;
42018;SDS011;27703;51.980;5.848;2022-07-12T08:00:34;2.08;;;1.27;;
42018;SDS011;27703;51.980;5.848;2022-07-12T08:02:59;1.95;;;1.52;;
42018;SDS011;27703;51.980;5.848;2022-07-12T08:05:25;2.28;;;0.95;;
42018;SDS011;27703;51.980;5.848;2022-07-12T08:07:50;1.35;;;0.70;;
42018;SDS011;27703;51.980;5.848;2022-07-12T08:10:16;2.03;;;0.95;;
42018;SDS011;27703;51.980;5.848;2022-07-12T08:12:42;1.52;;;1.25;;
42018;SDS011;27703;51.980;5.848;2022-07-12T08:15:07;1.17;;;0.88;;
42018;SDS011;27703;51.980;5.848;2022-07-12T08:17:33;1.10;;;0.60;;
42018;SDS011;27703;51.980;5.848;2022-07-12T08:19:59;1.23;;;0.80;;
42018;SDS011;27703;51.980;5.848;2022-07-12T08:22:25;1.77;;;0.70;;
42018;SDS011;27703;51.980;5.848;2022-07-12T08:24:50;1.27;;;0.70;;
42018;SDS011;27703;51.980;5.848;2022-07-12T08:27:16;0.90;;;0.60;;
42018;SDS011;27703;51.980;5.848;2022-07-12T08:29:41;1.08;;;0.70;;
42018;SDS011;27703;51.980;5.848;2022-07-12T08:32:07;1.67;;;0.77;;
42018;SDS011;27703;51.980;5.848;2022-07-12T08:34:33;1.92;;;0.98;;
42018;SDS011;27703;51.980;5.848;2022-07-12T08:36:59;1.35;;;0.70;;
42018;SDS011;27703;51.980;5.848;2022-07-12T08:39:24;1.20;;;0.60;;
42018;SDS011;27703;51.980;5.848;2022-07-12T08:41:50;0.80;;;0.40;;
42018;SDS011;27703;51.980;5.848;2022-07-12T08:44:16;1.10;;;0.60;;
42018;SDS011;27703;51.980;5.848;2022-07-12T08:46:41;2.13;;;0.50;;
42018;SDS011;27703;51.980;5.848;2022-07-12T08:49:07;1.58;;;0.40;;
42018;SDS011;27703;51.980;5.848;2022-07-12T08:51:32;2.33;;;1.35;;
42018;SDS011;27703;51.980;5.848;2022-07-12T08:54:05;1.00;;;0.50;;
42018;SDS011;27703;51.980;5.848;2022-07-12T08:56:38;1.00;;;0.60;;
42018;SDS011;27703;51.980;5.848;2022-07-12T08:59:12;2.78;;;0.50;;
42018;SDS011;27703;51.980;5.848;2022-07-12T09:01:46;0.80;;;0.40;;
42018;SDS011;27703;51.980;5.848;2022-07-12T09:04:13;1.52;;;0.85;;
42018;SDS011;27703;51.980;5.848;2022-07-12T09:06:43;2.47;;;0.50;;
42018;SDS011;27703;51.980;5.848;2022-07-12T09:09:09;0.80;;;0.40;;
42018;SDS011;27703;51.980;5.848;2022-07-12T09:11:37;1.67;;;0.30;;
42018;SDS011;27703;51.980;5.848;2022-07-12T09:14:05;0.55;;;0.32;;
42018;SDS011;27703;51.980;5.848;2022-07-12T09:16:31;1.25;;;0.47;;
42018;SDS011;27703;51.980;5.848;2022-07-12T09:19:16;0.90;;;0.50;;
42018;SDS011;27703;51.980;5.848;2022-07-12T09:21:48;0.80;;;0.50;;
42018;SDS011;27703;51.980;5.848;2022-07-12T09:24:15;0.77;;;0.30;;
42018;SDS011;27703;51.980;5.848;2022-07-12T09:26:41;1.33;;;0.30;;
42018;SDS011;27703;51.980;5.848;2022-07-12T09:29:07;0.43;;;0.30;;
42018;SDS011;27703;51.980;5.848;2022-07-12T09:31:37;0.60;;;0.28;;
42018;SDS011;27703;51.980;5.848;2022-07-12T09:34:26;1.35;;;0.30;;
42018;SDS011;27703;51.980;5.848;2022-07-12T09:37:10;2.72;;;0.20;;
42018;SDS011;27703;51.980;5.848;2022-07-12T09:39:37;0.85;;;0.30;;
42018;SDS011;27703;51.980;5.848;2022-07-12T09:42:03;0.80;;;0.30;;
42018;SDS011;27703;51.980;5.848;2022-07-12T09:44:31;0.93;;;0.40;;
42018;SDS011;27703;51.980;5.848;2022-07-12T09:46:58;0.63;;;0.40;;
42018;SDS011;27703;51.980;5.848;2022-07-12T09:49:25;1.00;;;0.68;;
42018;SDS011;27703;51.980;5.848;2022-07-12T09:51:53;0.60;;;0.30;;
42018;SDS011;27703;51.980;5.848;2022-07-12T09:54:24;0.80;;;0.32;;
42018;SDS011;27703;51.980;5.848;2022-07-12T09:56:54;0.85;;;0.30;;
42018;SDS011;27703;51.980;5.848;2022-07-12T09:59:24;0.68;;;0.30;;
42018;SDS011;27703;51.980;5.848;2022-07-12T10:01:53;0.80;;;0.40;;
42018;SDS011;27703;51.980;5.848;2022-07-12T10:04:24;2.05;;;0.30;;
42018;SDS011;27703;51.980;5.848;2022-07-12T10:06:55;0.77;;;0.43;;
42018;SDS011;27703;51.980;5.848;2022-07-12T10:09:21;0.55;;;0.30;;
42018;SDS011;27703;51.980;5.848;2022-07-12T10:11:48;2.47;;;0.30;;
42018;SDS011;27703;51.980;5.848;2022-07-12T10:14:14;0.63;;;0.30;;
42018;SDS011;27703;51.980;5.848;2022-07-12T10:16:43;0.75;;;0.30;;
42018;SDS011;27703;51.980;5.848;2022-07-12T10:19:23;1.27;;;0.20;;
42018;SDS011;27703;51.980;5.848;2022-07-12T10:21:57;1.60;;;0.30;;
42018;SDS011;27703;51.980;5.848;2022-07-12T10:26:56;2.05;;;0.90;;
42018;SDS011;27703;51.980;5.848;2022-07-12T10:29:22;0.68;;;0.40;;
42018;SDS011;27703;51.980;5.848;2022-07-12T10:31:49;1.13;;;0.40;;
42018;SDS011;27703;51.980;5.848;2022-07-12T10:34:22;1.35;;;0.30;;
42018;SDS011;27703;51.980;5.848;2022-07-12T10:37:06;0.30;;;0.20;;
42018;SDS011;27703;51.980;5.848;2022-07-12T10:39:33;0.47;;;0.20;;
42018;SDS011;27703;51.980;5.848;2022-07-12T10:42:12;0.35;;;0.10;;
42018;SDS011;27703;51.980;5.848;2022-07-12T10:44:39;0.35;;;0.17;;
42018;SDS011;27703;51.980;5.848;2022-07-12T10:47:12;1.60;;;0.10;;
42018;SDS011;27703;51.980;5.848;2022-07-12T10:49:58;1.50;;;0.45;;
42018;SDS011;27703;51.980;5.848;2022-07-12T10:52:24;1.02;;;0.65;;
42018;SDS011;27703;51.980;5.848;2022-07-12T11:00:12;2.40;;;0.38;;
42018;SDS011;27703;51.980;5.848;2022-07-12T11:02:38;1.52;;;0.55;;
42018;SDS011;27703;51.980;5.848;2022-07-12T11:05:04;3.33;;;0.47;;
42018;SDS011;27703;51.980;5.848;2022-07-12T11:07:30;0.88;;;0.52;;
42018;SDS011;27703;51.980;5.848;2022-07-12T11:09:56;1.50;;;0.40;;
42018;SDS011;27703;51.980;5.848;2022-07-12T11:12:28;0.93;;;0.50;;
42018;SDS011;27703;51.980;5.848;2022-07-12T11:14:55;1.40;;;0.40;;
42018;SDS011;27703;51.980;5.848;2022-07-12T11:17:27;1.27;;;0.50;;
42018;SDS011;27703;51.980;5.848;2022-07-12T11:20:07;2.33;;;0.60;;
42018;SDS011;27703;51.980;5.848;2022-07-12T11:22:37;2.30;;;0.50;;
42018;SDS011;27703;51.980;5.848;2022-07-12T11:25:07;1.38;;;0.40;;
42018;SDS011;27703;51.980;5.848;2022-07-12T11:27:35;0.80;;;0.30;;
42018;SDS011;27703;51.980;5.848;2022-07-12T11:30:01;1.08;;;0.30;;
42018;SDS011;27703;51.980;5.848;2022-07-12T11:32:39;1.75;;;0.40;;
42018;SDS011;27703;51.980;5.848;2022-07-12T11:35:28;0.90;;;0.55;;
42018;SDS011;27703;51.980;5.848;2022-07-12T11:37:56;2.50;;;0.40;;
42018;SDS011;27703;51.980;5.848;2022-07-12T11:40:23;0.82;;;0.60;;
42018;SDS011;27703;51.980;5.848;2022-07-12T11:42:54;1.13;;;0.50;;
42018;SDS011;27703;51.980;5.848;2022-07-12T11:45:20;0.90;;;0.38;;
42018;SDS011;27703;51.980;5.848;2022-07-12T11:47:46;1.02;;;0.50;;
42018;SDS011;27703;51.980;5.848;2022-07-12T11:50:12;4.97;;;0.45;;
42018;SDS011;27703;51.980;5.848;2022-07-12T11:52:43;0.73;;;0.40;;
42018;SDS011;27703;51.980;5.848;2022-07-12T11:55:09;1.52;;;0.73;;
42018;SDS011;27703;51.980;5.848;2022-07-12T11:57:34;2.08;;;0.68;;
42018;SDS011;27703;51.980;5.848;2022-07-12T12:00:14;1.90;;;0.70;;
42018;SDS011;27703;51.980;5.848;2022-07-12T12:02:41;1.30;;;0.38;;
42018;SDS011;27703;51.980;5.848;2022-07-12T12:05:06;0.80;;;0.50;;
42018;SDS011;27703;51.980;5.848;2022-07-12T12:07:32;2.05;;;0.40;;
42018;SDS011;27703;51.980;5.848;2022-07-12T12:10:05;2.50;;;0.80;;
42018;SDS011;27703;51.980;5.848;2022-07-12T12:15:23;0.88;;;0.40;;
42018;SDS011;27703;51.980;5.848;2022-07-12T12:20:19;0.70;;;0.50;;
42018;SDS011;27703;51.980;5.848;2022-07-12T12:22:47;0.90;;;0.50;;
42018;SDS011;27703;51.980;5.848;2022-07-12T12:25:16;2.72;;;0.70;;
42018;SDS011;27703;51.980;5.848;2022-07-12T12:27:42;1.70;;;0.70;;
42018;SDS011;27703;51.980;5.848;2022-07-12T12:30:09;1.02;;;0.40;;
42018;SDS011;27703;51.980;5.848;2022-07-12T12:32:54;1.10;;;0.47;;
42018;SDS011;27703;51.980;5.848;2022-07-12T12:38:17;0.50;;;0.30;;
42018;SDS011;27703;51.980;5.848;2022-07-12T12:40:51;0.60;;;0.30;;
42018;SDS011;27703;51.980;5.848;2022-07-12T12:43:20;0.60;;;0.30;;
42018;SDS011;27703;51.980;5.848;2022-07-12T12:48:18;0.60;;;0.28;;
42018;SDS011;27703;51.980;5.848;2022-07-12T12:50:45;5.28;;;0.50;;
42018;SDS011;27703;51.980;5.848;2022-07-12T12:53:14;1.20;;;0.30;;
42018;SDS011;27703;51.980;5.848;2022-07-12T12:55:41;1.10;;;0.30;;
42018;SDS011;27703;51.980;5.848;2022-07-12T12:58:08;1.27;;;0.30;;
42018;SDS011;27703;51.980;5.848;2022-07-12T13:00:36;0.50;;;0.20;;
42018;SDS011;27703;51.980;5.848;2022-07-12T13:03:06;1.00;;;0.30;;
42018;SDS011;27703;51.980;5.848;2022-07-12T13:05:33;1.17;;;0.40;;
42018;SDS011;27703;51.980;5.848;2022-07-12T13:07:59;1.60;;;0.30;;
42018;SDS011;27703;51.980;5.848;2022-07-12T13:10:25;0.70;;;0.30;;
42018;SDS011;27703;51.980;5.848;2022-07-12T13:12:51;0.50;;;0.20;;
42018;SDS011;27703;51.980;5.848;2022-07-12T13:15:17;1.27;;;0.50;;
42018;SDS011;27703;51.980;5.848;2022-07-12T13:17:43;1.23;;;0.30;;
42018;SDS011;27703;51.980;5.848;2022-07-12T13:20:09;0.70;;;0.20;;
42018;SDS011;27703;51.980;5.848;2022-07-12T13:22:37;1.33;;;0.40;;
42018;SDS011;27703;51.980;5.848;2022-07-12T13:25:04;0.88;;;0.30;;
42018;SDS011;27703;51.980;5.848;2022-07-12T13:27:31;0.50;;;0.20;;
42018;SDS011;27703;51.980;5.848;2022-07-12T13:29:56;0.85;;;0.30;;
42018;SDS011;27703;51.980;5.848;2022-07-12T13:32:22;0.65;;;0.35;;
42018;SDS011;27703;51.980;5.848;2022-07-12T13:34:49;2.80;;;0.60;;
42018;SDS011;27703;51.980;5.848;2022-07-12T13:37:15;0.85;;;0.43;;
42018;SDS011;27703;51.980;5.848;2022-07-12T13:39:41;1.13;;;0.40;;
42018;SDS011;27703;51.980;5.848;2022-07-12T13:42:25;1.23;;;0.20;;
42018;SDS011;27703;51.980;5.848;2022-07-12T13:44:51;2.65;;;0.30;;
42018;SDS011;27703;51.980;5.848;2022-07-12T13:47:21;0.70;;;0.30;;
42018;SDS011;27703;51.980;5.848;2022-07-12T13:49:47;0.95;;;0.20;;
42018;SDS011;27703;51.980;5.848;2022-07-12T13:52:13;2.63;;;0.20;;
42018;SDS011;27703;51.980;5.848;2022-07-12T13:54:40;1.02;;;0.30;;
42018;SDS011;27703;51.980;5.848;2022-07-12T13:57:06;0.82;;;0.40;;
42018;SDS011;27703;51.980;5.848;2022-07-12T13:59:32;1.15;;;0.30;;
42018;SDS011;27703;51.980;5.848;2022-07-12T14:01:58;0.25;;;0.10;;
42018;SDS011;27703;51.980;5.848;2022-07-12T14:04:23;0.30;;;0.20;;
42018;SDS011;27703;51.980;5.848;2022-07-12T14:06:49;0.82;;;0.30;;
42018;SDS011;27703;51.980;5.848;2022-07-12T14:09:15;0.20;;;0.10;;
42018;SDS011;27703;51.980;5.848;2022-07-12T14:11:40;2.03;;;0.20;;
42018;SDS011;27703;51.980;5.848;2022-07-12T14:14:06;1.05;;;0.20;;
42018;SDS011;27703;51.980;5.848;2022-07-12T14:16:32;0.40;;;0.20;;
42018;SDS011;27703;51.980;5.848;2022-07-12T14:18:58;0.50;;;0.30;;
42018;SDS011;27703;51.980;5.848;2022-07-12T14:21:25;0.70;;;0.20;;
42018;SDS011;27703;51.980;5.848;2022-07-12T14:23:52;0.60;;;0.20;;
42018;SDS011;27703;51.980;5.848;2022-07-12T14:26:18;0.77;;;0.30;;
42018;SDS011;27703;51.980;5.848;2022-07-12T14:28:44;0.63;;;0.20;;
42018;SDS011;27703;51.980;5.848;2022-07-12T14:31:10;0.40;;;0.10;;
42018;SDS011;27703;51.980;5.848;2022-07-12T14:33:35;1.80;;;0.30;;
42018;SDS011;27703;51.980;5.848;2022-07-12T14:36:01;0.10;;;0.10;;
42018;SDS011;27703;51.980;5.848;2022-07-12T14:38:27;0.63;;;0.10;;
42018;SDS011;27703;51.980;5.848;2022-07-12T14:40:52;2.67;;;0.10;;
42018;SDS011;27703;51.980;5.848;2022-07-12T14:43:18;0.35;;;0.10;;
42018;SDS011;27703;51.980;5.848;2022-07-12T14:45:45;0.73;;;0.10;;
42018;SDS011;27703;51.980;5.848;2022-07-12T14:48:10;0.28;;;0.00;;
42018;SDS011;27703;51.980;5.848;2022-07-12T14:50:37;0.20;;;0.10;;
42018;SDS011;27703;51.980;5.848;2022-07-12T14:53:03;0.63;;;0.10;;
42018;SDS011;27703;51.980;5.848;2022-07-12T14:55:29;2.20;;;0.10;;
42018;SDS011;27703;51.980;5.848;2022-07-12T14:57:55;2.17;;;0.20;;
42018;SDS011;27703;51.980;5.848;2022-07-12T15:00:20;0.40;;;0.10;;
42018;SDS011;27703;51.980;5.848;2022-07-12T15:02:46;1.63;;;0.10;;
42018;SDS011;27703;51.980;5.848;2022-07-12T15:05:12;0.28;;;0.15;;
42018;SDS011;27703;51.980;5.848;2022-07-12T15:07:38;0.50;;;0.10;;